Terminal Aerodrome Forecast
Issued by NWS

Home | Current Version | Previous Version | Graphics & Text | Print | Product List | Glossary On
Versions: 1 2 3 4 5 6 7 8 9 10 11 12 13 14 15
658
FTUS43 KBIS 272336
TAFDIK
TAF
KDIK 272336Z 2800/2824 07006KT P6SM BKN060
     FM280300 06005KT P6SM SCT080
     FM281700 17005KT P6SM BKN110
     FM282000 23006KT P6SM -SHRA VCTS BKN090CB=

USA.gov is the U.S. government's official web portal to all federal, state and local government web resources and services.